Time;durP1;ratioP1;P1;durP2;ratioP2;P2;SDS_P1;SDS_P2;PMS_P1;PMS_P2;Temp;Humidity;BMP_temperature;BMP_pressure;BME280_temperature;BME280_humidity;BME280_pressure;Samples;Min_cycle;Max_cycle;Signal;HPM_P1;HPM_P2
2023/11/22 00:00:48;;;;;;;23.60;14.00;;;;;;;0.56;100.00;99169.98;273339;1276;22570;-87
2023/11/22 00:07:39;;;;;;;27.10;15.40;;;;;;;0.51;100.00;99181.35;272239;1275;22435;-87
2023/11/22 00:14:04;;;;;;;28.30;15.20;;;;;;;0.47;100.00;99196.43;270203;1275;24225;-87
2023/11/22 00:20:08;;;;;;;26.40;15.60;;;;;;;0.47;100.00;99208.12;271428;1270;22539;-87
2023/11/22 00:26:35;;;;;;;24.50;14.90;;;;;;;0.48;100.00;99219.98;271324;1269;23908;-88
2023/11/22 00:40:06;;;;;;;31.10;18.10;;;;;;;0.43;100.00;99247.73;272594;1269;22449;-87
2023/11/22 00:55:07;;;;;;;31.20;18.40;;;;;;;0.22;100.00;99244.69;273778;1269;22850;-87
2023/11/22 01:01:38;;;;;;;31.50;17.70;;;;;;;0.17;100.00;99253.48;272752;1269;22204;-88
2023/11/22 01:08:05;;;;;;;34.20;19.60;;;;;;;0.14;100.00;99263.02;273613;1276;23290;-86
2023/11/22 01:14:32;;;;;;;31.40;18.70;;;;;;;0.11;100.00;99265.16;273408;1277;22237;-88
2023/11/22 01:21:05;;;;;;;30.10;18.20;;;;;;;0.10;100.00;99257.86;273289;1277;22254;-87
2023/11/22 01:28:00;;;;;;;29.90;17.90;;;;;;;0.08;100.00;99264.63;273416;1270;22683;-88
2023/11/22 01:34:51;;;;;;;29.50;17.40;;;;;;;0.07;100.00;99275.38;273549;1271;22248;-86
2023/11/22 01:49:17;;;;;;;30.70;16.80;;;;;;;-0.08;100.00;99285.84;273588;1276;23324;-85
2023/11/22 01:55:21;;;;;;;28.20;16.80;;;;;;;-0.14;100.00;99297.66;273465;1269;22196;-86
2023/11/22 02:23:28;;;;;;;30.40;18.10;;;;;;;-0.10;100.00;99331.41;273796;1276;23195;-86
2023/11/22 02:29:55;;;;;;;30.50;18.00;;;;;;;-0.16;100.00;99335.38;273781;1270;22934;-86
2023/11/22 02:36:00;;;;;;;29.80;17.80;;;;;;;-0.20;100.00;99336.43;272024;1258;101772;-87
2023/11/22 02:42:03;;;;;;;31.40;18.40;;;;;;;-0.21;100.00;99341.56;273057;1268;22299;-87
2023/11/22 02:48:09;;;;;;;32.00;17.80;;;;;;;-0.20;100.00;99347.23;272946;1269;22394;-87
2023/11/22 02:55:16;;;;;;;33.50;17.80;;;;;;;-0.27;100.00;99349.73;273070;1269;22376;-87
2023/11/22 03:01:57;;;;;;;33.00;17.20;;;;;;;-0.29;100.00;99351.82;272756;1269;22642;-87
2023/11/22 03:07:59;;;;;;;34.60;18.80;;;;;;;-0.25;100.00;99357.52;272255;1268;22950;-88
2023/11/22 03:14:07;;;;;;;31.40;17.90;;;;;;;-0.23;100.00;99369.05;273370;1269;22195;-90
2023/11/22 03:20:31;;;;;;;33.60;18.50;;;;;;;-0.22;100.00;99389.52;273361;1269;23469;-88
2023/11/22 03:26:34;;;;;;;34.50;19.70;;;;;;;-0.15;100.00;99402.31;273001;1269;22337;-88
2023/11/22 03:32:39;;;;;;;34.30;19.60;;;;;;;-0.08;100.00;99414.25;273152;1269;22756;-88
2023/11/22 03:38:52;;;;;;;40.90;21.60;;;;;;;-0.03;100.00;99428.85;273134;1269;22936;-88
2023/11/22 03:44:55;;;;;;;36.70;19.70;;;;;;;-0.02;100.00;99432.45;273165;1269;22629;-88
2023/11/22 03:51:00;;;;;;;39.70;20.50;;;;;;;-0.02;100.00;99445.75;273002;1261;22258;-87
2023/11/22 03:57:02;;;;;;;41.50;21.90;;;;;;;-0.00;100.00;99451.42;273076;1269;22426;-87
2023/11/22 04:03:04;;;;;;;44.20;22.90;;;;;;;-0.01;100.00;99463.34;273313;1269;22282;-88
2023/11/22 04:09:12;;;;;;;43.60;23.20;;;;;;;-0.05;100.00;99476.86;273115;1269;23051;-88
2023/11/22 04:15:14;;;;;;;40.60;22.20;;;;;;;-0.11;100.00;99482.23;273143;1269;22930;-88
2023/11/22 04:21:19;;;;;;;42.60;22.60;;;;;;;-0.15;100.00;99489.92;271289;1269;22447;-88
2023/11/22 04:28:08;;;;;;;;;;;;;;;;;;;;;
2023/11/22 04:34:20;;;;;;;;;;;;;;;;;;;;;
2023/11/22 04:40:23;;;;;;;43.30;24.10;;;;;;;-0.09;100.00;99521.60;273141;1269;24120;-86
2023/11/22 04:46:25;;;;;;;43.10;23.70;;;;;;;-0.15;100.00;99538.80;273106;1269;22506;-87
2023/11/22 04:52:29;;;;;;;44.60;24.90;;;;;;;-0.21;100.00;99553.95;272134;1269;422858;-88
2023/11/22 04:58:33;;;;;;;45.50;23.40;;;;;;;-0.27;100.00;99569.31;271594;1268;23463;-87
2023/11/22 05:05:03;;;;;;;45.50;24.20;;;;;;;-0.31;100.00;99588.48;269982;1268;22580;-87
2023/11/22 05:11:15;;;;;;;;;;;;;;;;;;;;;
2023/11/22 05:17:20;;;;;;;39.30;22.60;;;;;;;-0.42;100.00;99607.45;270334;1269;22567;-87
2023/11/22 05:24:03;;;;;;;35.90;21.60;;;;;;;-0.46;100.00;99624.77;271995;1269;23682;-87
2023/11/22 05:30:26;;;;;;;44.70;23.10;;;;;;;-0.46;100.00;99635.15;271701;1269;25439;-86
2023/11/22 05:36:28;;;;;;;42.50;23.30;;;;;;;-0.50;100.00;99644.14;272357;1269;22196;-87
2023/11/22 05:42:30;;;;;;;41.40;22.80;;;;;;;-0.51;100.00;99645.50;270894;1269;22535;-87
2023/11/22 05:48:49;;;;;;;42.70;23.70;;;;;;;-0.53;100.00;99652.29;271089;1269;23566;-86
2023/11/22 05:54:51;;;;;;;49.10;24.50;;;;;;;-0.54;100.00;99659.13;272072;1269;22539;-87
2023/11/22 06:00:54;;;;;;;45.20;23.20;;;;;;;-0.58;100.00;99655.09;272760;1269;23373;-87
2023/11/22 06:06:56;;;;;;;51.60;22.70;;;;;;;-0.59;100.00;99658.77;273192;1269;22434;-86
2023/11/22 06:12:58;;;;;;;42.60;22.90;;;;;;;-0.60;100.00;99668.83;272883;1269;23123;-87
2023/11/22 06:19:13;;;;;;;49.90;25.30;;;;;;;-0.59;100.00;99679.30;273072;1269;22287;-87
2023/11/22 06:25:18;;;;;;;46.60;25.10;;;;;;;-0.58;100.00;99688.16;273141;1269;23473;-88
2023/11/22 06:31:21;;;;;;;38.90;19.10;;;;;;;-0.60;100.00;99693.36;271376;1260;23482;-86
2023/11/22 06:37:26;;;;;;;46.60;23.60;;;;;;;-0.65;100.00;99705.66;271566;1269;22209;-86
2023/11/22 06:43:28;;;;;;;45.10;24.30;;;;;;;-0.70;100.00;99719.21;273232;1269;23741;-86
2023/11/22 06:49:32;;;;;;;48.30;25.00;;;;;;;-0.72;100.00;99728.38;273290;1269;23573;-85
2023/11/22 06:55:38;;;;;;;43.50;24.40;;;;;;;-0.68;100.00;99736.62;273159;1268;23732;-88
2023/11/22 07:01:41;;;;;;;49.40;24.00;;;;;;;-0.66;100.00;99747.09;272733;1269;22568;-88
2023/11/22 07:07:46;;;;;;;50.10;25.00;;;;;;;-0.61;100.00;99755.64;271275;1269;23392;-87
2023/11/22 07:13:48;;;;;;;43.50;22.80;;;;;;;-0.62;100.00;99762.31;271800;1270;22627;-87
2023/11/22 07:19:55;;;;;;;46.40;24.30;;;;;;;-0.64;100.00;99769.97;271234;1269;23156;-88
2023/11/22 07:26:35;;;;;;;48.90;25.90;;;;;;;-0.69;100.00;99777.16;271992;1268;24090;-87
2023/11/22 07:34:04;;;;;;;41.80;23.10;;;;;;;-0.75;100.00;99786.20;270847;1269;22576;-87
2023/11/22 07:40:28;;;;;;;42.90;22.30;;;;;;;-0.82;100.00;99790.02;270941;1269;25355;-86
2023/11/22 07:54:16;;;;;;;47.50;24.20;;;;;;;-0.90;100.00;99796.33;272085;1269;25344;-87
2023/11/22 08:00:43;;;;;;;47.10;22.90;;;;;;;-0.89;100.00;99806.86;270579;1269;22401;-87
2023/11/22 08:06:45;;;;;;;60.80;25.00;;;;;;;-0.93;100.00;99802.42;272499;1266;22170;-88
2023/11/22 08:13:29;;;;;;;;;;;;;;;;;;;;;
2023/11/22 08:19:55;;;;;;;39.10;21.60;;;;;;;-0.91;100.00;99827.88;271511;1269;24285;-87
2023/11/22 08:33:39;;;;;;;34.10;18.40;;;;;;;-0.93;100.00;99857.63;273105;1269;22338;-88
2023/11/22 08:40:04;;;;;;;;;;;;;;;;;;;;;
2023/11/22 08:47:04;;;;;;;47.10;19.50;;;;;;;-0.91;100.00;99855.19;272810;1269;22807;-87
2023/11/22 08:53:09;;;;;;;37.80;20.40;;;;;;;-0.79;100.00;99862.64;272647;1260;22208;-87
2023/11/22 08:59:40;;;;;;;;;;;;;;;;;;;;;
2023/11/22 09:06:19;;;;;;;33.80;18.20;;;;;;;-0.82;100.00;99883.47;272410;1269;22567;-88
2023/11/22 09:12:20;;;;;;;31.50;17.90;;;;;;;-0.81;100.00;99881.79;270648;1269;22632;-87
2023/11/22 09:18:27;;;;;;;31.40;17.60;;;;;;;-0.83;100.00;99872.98;272354;1269;22469;-89
2023/11/22 09:25:29;;;;;;;;;;;;;;;;;;;;;
2023/11/22 09:31:56;;;;;;;33.60;18.40;;;;;;;-0.82;100.00;99878.69;272241;1269;22435;-88
2023/11/22 09:38:13;;;;;;;36.60;17.80;;;;;;;-0.85;100.00;99890.80;273302;1269;22413;-88
2023/11/22 09:44:16;;;;;;;33.70;18.10;;;;;;;-0.85;100.00;99896.23;272935;1269;22282;-86
2023/11/22 09:51:28;;;;;;;;;;;;;;;;;;;;;
2023/11/22 09:57:56;;;;;;;34.40;19.40;;;;;;;-0.86;100.00;99904.80;271713;1268;22540;-89
2023/11/22 10:04:00;;;;;;;34.40;19.50;;;;;;;-0.89;100.00;99918.26;271457;1269;22353;-89
2023/11/22 10:10:08;;;;;;;34.50;19.20;;;;;;;-0.88;100.00;99916.90;273319;1268;22493;-89
2023/11/22 10:16:19;;;;;;;37.60;19.40;;;;;;;-0.85;100.00;99918.21;272555;1269;23130;-89
2023/11/22 10:22:27;;;;;;;36.60;18.20;;;;;;;-0.72;100.00;99920.83;273354;1269;22333;-89
2023/11/22 10:28:39;;;;;;;31.70;17.70;;;;;;;-0.65;100.00;99936.32;273322;1268;22336;-89
2023/11/22 10:34:52;;;;;;;35.80;18.80;;;;;;;-0.65;100.00;99949.17;273155;1269;22477;-86
2023/11/22 10:41:05;;;;;;;;;;;;;;;;;;;;;
2023/11/22 10:47:15;;;;;;;34.50;18.80;;;;;;;-0.51;100.00;99956.83;272395;1269;22265;-89
2023/11/22 10:53:42;;;;;;;33.60;18.10;;;;;;;-0.50;100.00;99961.98;273760;1272;22165;-90
2023/11/22 11:00:19;;;;;;;;;;;;;;;;;;;;;
2023/11/22 11:06:28;;;;;;;34.70;17.70;;;;;;;-0.51;100.00;99943.75;272670;1269;22337;-89
2023/11/22 11:12:53;;;;;;;34.20;17.80;;;;;;;-0.52;100.00;99942.09;271900;1269;22371;-88
2023/11/22 11:19:02;;;;;;;35.60;19.20;;;;;;;-0.48;100.00;99937.77;273142;1269;23435;-88
2023/11/22 11:25:55;;;;;;;37.50;18.60;;;;;;;-0.47;100.00;99933.34;273564;1270;23160;-89
2023/11/22 11:32:02;;;;;;;38.70;19.80;;;;;;;-0.48;100.00;99948.74;272540;1269;22384;-88
2023/11/22 11:38:08;;;;;;;33.80;18.60;;;;;;;-0.47;100.00;99951.05;273301;1267;22190;-90
2023/11/22 11:45:12;;;;;;;42.30;19.10;;;;;;;-0.45;100.00;99950.17;273309;1268;22562;-90
2023/11/22 11:51:49;;;;;;;;;;;;;;;;;;;;;
2023/11/22 11:58:04;;;;;;;35.70;19.90;;;;;;;-0.40;100.00;99969.98;270717;1269;23007;-88
2023/11/22 12:04:42;;;;;;;39.60;21.80;;;;;;;-0.44;100.00;99986.80;271638;1268;23279;-88
2023/11/22 12:11:04;;;;;;;34.60;18.90;;;;;;;-0.45;100.00;100006.23;272022;1268;23716;-89
2023/11/22 12:17:09;;;;;;;;;;;;;;;-0.46;100.00;99995.21;273024;1269;22562;-88
2023/11/22 12:23:29;;;;;;;40.50;20.70;;;;;;;-0.46;100.00;99990.42;271863;1268;23784;-89
2023/11/22 12:29:41;;;;;;;39.40;20.40;;;;;;;-0.48;100.00;99994.48;270762;1269;22338;-86
2023/11/22 12:35:50;;;;;;;40.70;20.40;;;;;;;-0.54;100.00;99985.09;271019;1269;22613;-89
2023/11/22 12:41:57;;;;;;;35.60;16.00;;;;;;;-0.52;100.00;99980.52;272933;1269;22220;-88
2023/11/22 12:48:29;;;;;;;44.10;23.50;;;;;;;-0.54;100.00;99975.45;273129;1269;22414;-88
2023/11/22 12:54:35;;;;;;;39.20;21.00;;;;;;;-0.53;100.00;99972.92;273032;1268;22554;-88
2023/11/22 13:00:57;;;;;;;44.10;22.60;;;;;;;-0.59;100.00;99967.86;273204;1269;22386;-89
2023/11/22 13:07:02;;;;;;;39.60;21.70;;;;;;;-0.58;100.00;99979.79;273024;1269;23601;-88
2023/11/22 13:13:10;;;;;;;41.60;22.20;;;;;;;-0.54;100.00;99990.14;272843;1269;22446;-89
2023/11/22 13:19:30;;;;;;;;;;;;;;;;;;;;;
2023/11/22 13:25:44;;;;;;;41.10;21.60;;;;;;;-0.42;100.00;100009.16;271565;1269;22342;-88
2023/11/22 13:31:51;;;;;;;41.50;21.10;;;;;;;-0.42;100.00;100014.88;271412;1269;22328;-88
2023/11/22 13:38:02;;;;;;;41.80;19.50;;;;;;;-0.48;100.00;100013.09;271677;1269;22304;-87
2023/11/22 13:44:07;;;;;;;34.30;18.70;;;;;;;-0.55;100.00;100008.02;272031;1254;22592;-88
2023/11/22 13:50:09;;;;;;;38.60;20.70;;;;;;;-0.56;100.00;100008.45;272511;1260;23573;-88
2023/11/22 13:56:11;;;;;;;38.90;20.70;;;;;;;-0.57;100.00;100015.12;273123;1269;22324;-88
2023/11/22 14:02:13;;;;;;;36.30;19.20;;;;;;;-0.60;100.00;100013.26;272867;1269;23364;-87
2023/11/22 14:08:16;;;;;;;37.80;19.40;;;;;;;-0.60;100.00;100012.29;272094;1258;22590;-88
2023/11/22 14:14:27;;;;;;;40.70;19.70;;;;;;;-0.60;100.00;100021.33;272850;1268;22459;-88
2023/11/22 14:20:29;;;;;;;31.40;18.20;;;;;;;-0.56;100.00;100038.95;273123;1268;23490;-88
2023/11/22 14:26:49;;;;;;;;;;;;;;;;;;;;;
2023/11/22 14:32:51;;;;;;;41.80;21.60;;;;;;;-0.51;100.00;100078.83;271362;1269;22654;-87
2023/11/22 14:39:14;;;;;;;39.60;19.70;;;;;;;-0.49;100.00;100077.59;272935;1269;22980;-87
2023/11/22 14:45:16;;;;;;;38.50;20.60;;;;;;;-0.49;100.00;100071.13;273131;1257;22483;-87
2023/11/22 14:51:18;;;;;;;37.30;19.40;;;;;;;-0.46;100.00;100058.80;257762;1258;10002023;-87
2023/11/22 14:57:23;;;;;;;37.20;20.00;;;;;;;-0.44;100.00;100057.34;272865;1269;23467;-87
2023/11/22 15:03:28;;;;;;;49.50;22.10;;;;;;;-0.45;100.00;100070.46;273090;1269;23850;-87
2023/11/22 15:09:33;;;;;;;39.10;19.00;;;;;;;-0.50;100.00;100071.25;272271;1269;22507;-87
2023/11/22 15:15:36;;;;;;;28.10;16.10;;;;;;;-0.49;100.00;100069.52;273182;1269;22215;-87
2023/11/22 15:21:55;;;;;;;30.80;15.70;;;;;;;-0.49;100.00;100079.47;273253;1268;22948;-87
2023/11/22 15:28:22;;;;;;;37.00;15.60;;;;;;;-0.45;100.00;100075.95;272927;1262;23673;-88
2023/11/22 15:34:25;;;;;;;29.10;12.60;;;;;;;-0.52;100.00;100066.89;273081;1268;22203;-86
2023/11/22 15:40:28;;;;;;;26.80;12.40;;;;;;;-0.63;100.00;100062.48;273187;1263;23042;-86
2023/11/22 15:46:41;;;;;;;22.60;12.50;;;;;;;-0.63;100.00;100058.23;273122;1269;22386;-86
2023/11/22 15:52:46;;;;;;;22.50;12.10;;;;;;;-0.59;100.00;100059.19;272734;1268;22225;-87
2023/11/22 15:59:00;;;;;;;21.50;12.00;;;;;;;-0.51;100.00;100062.76;272824;1259;22389;-86
2023/11/22 16:05:50;;;;;;;27.50;12.60;;;;;;;-0.47;100.00;100064.72;272910;1269;22385;-87
2023/11/22 16:12:44;;;;;;;20.40;10.50;;;;;;;-0.58;100.00;100069.88;273621;1269;22787;-86
2023/11/22 16:19:36;;;;;;;;;;;;;;;;;;;;;
2023/11/22 16:25:52;;;;;;;21.90;11.80;;;;;;;-0.52;100.00;100072.77;272979;1269;25300;-85
2023/11/22 16:32:06;;;;;;;;;;;;;;;;;;;;;
2023/11/22 16:38:38;;;;;;;24.20;13.00;;;;;;;-0.47;100.00;100058.80;272720;1266;22186;-87
2023/11/22 16:44:43;;;;;;;21.80;12.50;;;;;;;-0.46;100.00;100059.39;273738;1272;22284;-86
2023/11/22 16:50:45;;;;;;;22.30;11.50;;;;;;;-0.55;100.00;100063.14;271324;1266;1766981;-87
2023/11/22 16:57:14;;;;;;;22.60;11.60;;;;;;;-0.57;100.00;100059.55;273593;1272;23230;-86
2023/11/22 17:04:22;;;;;;;28.60;15.40;;;;;;;-0.59;100.00;100059.41;273681;1271;22243;-86
2023/11/22 17:10:36;;;;;;;;;;;;;;;;;;;;;
2023/11/22 17:17:12;;;;;;;23.80;13.00;;;;;;;-0.65;100.00;100070.98;273829;1259;22184;-85
2023/11/22 17:23:34;;;;;;;21.90;12.60;;;;;;;-0.64;100.00;100073.84;273360;1269;22575;-87
2023/11/22 17:29:39;;;;;;;25.20;12.80;;;;;;;-0.61;100.00;100086.78;273216;1270;22227;-87
2023/11/22 17:35:43;;;;;;;24.30;12.70;;;;;;;-0.56;100.00;100085.09;273641;1269;23605;-87
2023/11/22 17:41:48;;;;;;;30.70;13.50;;;;;;;-0.50;100.00;100093.57;273737;1269;22211;-87
2023/11/22 17:47:51;;;;;;;22.60;12.40;;;;;;;-0.51;100.00;100105.30;271414;1268;25322;-87
2023/11/22 17:53:58;;;;;;;23.80;12.30;;;;;;;-0.55;100.00;100096.34;265795;1270;10001988;-87
2023/11/22 18:00:01;;;;;;;21.20;12.00;;;;;;;-0.54;100.00;100089.12;273448;1269;22187;-87
2023/11/22 18:06:29;;;;;;;27.20;13.60;;;;;;;-0.55;100.00;100086.32;273777;1269;23094;-87
2023/11/22 18:13:16;;;;;;;24.10;12.00;;;;;;;-0.60;100.00;100083.17;273597;1272;22159;-86
2023/11/22 18:20:30;;;;;;;;;;;;;;;;;;;;;
2023/11/22 18:26:37;;;;;;;32.20;17.50;;;;;;;-0.57;100.00;100084.08;272283;1269;22523;-87
2023/11/22 18:32:39;;;;;;;27.90;15.20;;;;;;;-0.61;100.00;100085.34;271574;1269;23306;-87
2023/11/22 18:38:48;;;;;;;23.10;13.40;;;;;;;-0.66;100.00;100097.34;272598;1269;22517;-87
2023/11/22 18:44:50;;;;;;;25.50;14.20;;;;;;;-0.66;100.00;100102.83;273399;1268;22392;-88
2023/11/22 18:50:52;;;;;;;28.10;15.20;;;;;;;-0.66;100.00;100100.63;273439;1269;22321;-88
2023/11/22 18:57:19;;;;;;;26.10;14.30;;;;;;;-0.66;100.00;100110.95;273171;1269;25418;-87
2023/11/22 19:03:42;;;;;;;;;;;;;;;-0.65;100.00;100113.21;271706;1269;22534;-88
2023/11/22 19:10:28;;;;;;;23.00;11.50;;;;;;;-0.70;100.00;100090.70;271847;1259;23511;-87
2023/11/22 19:17:21;;;;;;;24.00;12.30;;;;;;;-0.74;100.00;100066.14;273428;1272;23117;-87
2023/11/22 19:23:59;;;;;;;28.60;14.30;;;;;;;-0.73;100.00;100044.19;271641;1269;23802;-87
2023/11/22 19:31:14;;;;;;;25.00;13.20;;;;;;;-0.71;100.00;100044.23;273449;1269;22259;-88
2023/11/22 19:37:40;;;;;;;;;;;;;;;;;;;;;
2023/11/22 19:44:22;;;;;;;;;;;;;;;;;;;;;
2023/11/22 19:51:10;;;;;;;27.70;14.10;;;;;;;-0.80;100.00;100042.06;272999;1269;23197;-88
2023/11/22 19:57:33;;;;;;;24.70;14.30;;;;;;;-0.77;100.00;100044.16;273445;1269;22264;-87
2023/11/22 20:04:00;;;;;;;32.90;16.40;;;;;;;-0.74;100.00;100059.27;273422;1270;22455;-87
2023/11/22 20:10:05;;;;;;;37.10;17.60;;;;;;;-0.72;100.00;100042.58;273628;1272;23418;-88
2023/11/22 20:16:48;;;;;;;29.10;14.50;;;;;;;-0.74;100.00;100052.21;273641;1259;23290;-88
2023/11/22 20:22:51;;;;;;;37.80;15.50;;;;;;;-0.71;100.00;100048.16;271231;1269;22567;-89
2023/11/22 20:29:13;;;;;;;;;;;;;;;;;;;;;
2023/11/22 20:35:46;;;;;;;;;;;;;;;;;;;;;
2023/11/22 20:42:57;;;;;;;21.60;12.10;;;;;;;-0.79;100.00;100034.27;273520;1269;22078;-87
2023/11/22 20:49:37;;;;;;;33.30;16.80;;;;;;;-0.83;100.00;100021.97;273406;1269;22406;-89
2023/11/22 20:55:40;;;;;;;38.80;20.50;;;;;;;-0.85;100.00;100021.92;273825;1272;22338;-88
2023/11/22 21:02:35;;;;;;;;;;;;;;;;;;;;;
2023/11/22 21:09:08;;;;;;;27.70;14.40;;;;;;;-0.82;100.00;99992.94;273683;1272;22429;-88
2023/11/22 21:15:54;;;;;;;27.70;14.70;;;;;;;-0.77;100.00;99998.19;273860;1269;22251;-87
2023/11/22 21:23:21;;;;;;;33.00;17.20;;;;;;;-0.72;100.00;99977.19;273404;1269;22468;-88
2023/11/22 21:30:27;;;;;;;34.80;17.90;;;;;;;-0.78;100.00;99962.42;273822;1276;22237;-89
2023/11/22 21:36:49;;;;;;;33.20;18.10;;;;;;;-0.83;100.00;99953.59;273652;1269;22272;-88
2023/11/22 21:43:26;;;;;;;33.90;17.10;;;;;;;-0.84;100.00;99939.39;273549;1272;22227;-88
2023/11/22 21:50:09;;;;;;;33.70;18.20;;;;;;;-0.84;100.00;99934.77;273841;1266;22273;-88
2023/11/22 21:56:58;;;;;;;36.50;19.50;;;;;;;-0.79;100.00;99924.69;273718;1269;22201;-88
2023/11/22 22:03:02;;;;;;;35.40;19.00;;;;;;;-0.72;100.00;99911.42;273182;1269;22991;-89
2023/11/22 22:09:07;;;;;;;42.30;19.70;;;;;;;-0.71;100.00;99904.09;271610;1269;22522;-89
2023/11/22 22:15:12;;;;;;;32.10;17.50;;;;;;;-0.73;100.00;99916.15;273150;1269;22184;-89
2023/11/22 22:21:17;;;;;;;36.00;19.40;;;;;;;-0.76;100.00;99900.95;273281;1269;22165;-90
2023/11/22 22:27:23;;;;;;;33.70;17.50;;;;;;;-0.80;100.00;99891.30;271353;1269;22639;-89
2023/11/22 22:33:28;;;;;;;28.00;15.80;;;;;;;-0.79;100.00;99890.97;270931;1269;24362;-89
2023/11/22 22:39:30;;;;;;;36.80;16.90;;;;;;;-0.77;100.00;99902.96;271362;1269;23797;-89
2023/11/22 22:45:58;;;;;;;36.00;18.90;;;;;;;-0.74;100.00;99889.92;271992;1269;23095;-89
2023/11/22 22:52:00;;;;;;;31.20;16.90;;;;;;;-0.72;100.00;99876.84;271772;1269;22986;-89
2023/11/22 22:58:06;;;;;;;35.40;18.00;;;;;;;-0.76;100.00;99851.86;272550;1269;22192;-88
2023/11/22 23:04:08;;;;;;;35.30;18.40;;;;;;;-0.73;100.00;99863.77;272321;1269;23108;-90
2023/11/22 23:10:13;;;;;;;38.80;19.30;;;;;;;-0.65;100.00;99860.60;273084;1257;22179;-90
2023/11/22 23:16:17;;;;;;;37.90;18.80;;;;;;;-0.63;100.00;99835.69;273267;1268;24117;-90
2023/11/22 23:22:19;;;;;;;35.90;19.40;;;;;;;-0.64;100.00;99852.05;273274;1269;22352;-89
2023/11/22 23:28:22;;;;;;;33.30;17.80;;;;;;;-0.60;100.00;99854.38;272982;1268;22340;-89
2023/11/22 23:34:40;;;;;;;34.10;17.80;;;;;;;-0.63;100.00;99841.06;273066;1269;22422;-89
2023/11/22 23:40:44;;;;;;;37.80;20.30;;;;;;;-0.63;100.00;99823.42;273342;1269;22380;-89
2023/11/22 23:46:49;;;;;;;36.00;18.40;;;;;;;-0.61;100.00;99807.87;273274;1269;22348;-89
2023/11/22 23:52:55;;;;;;;37.70;19.00;;;;;;;-0.65;100.00;99793.16;271156;1268;22571;-89
2023/11/22 23:59:09;;;;;;;36.40;18.90;;;;;;;-0.66;100.00;99778.42;271706;1268;22216;-89
